createdAt,value
2019-04-06T00:00:38.575Z,23.00
2019-04-06T00:03:09.996Z,23.33
2019-04-06T00:05:39.817Z,23.50
2019-04-06T00:08:09.501Z,23.13
2019-04-06T00:10:39.334Z,23.77
2019-04-06T00:13:09.072Z,24.73
2019-04-06T00:15:39.168Z,23.93
2019-04-06T00:18:08.940Z,24.70
2019-04-06T00:20:38.917Z,23.80
2019-04-06T00:23:08.698Z,23.33
2019-04-06T00:25:44.322Z,24.03
2019-04-06T00:28:10.537Z,23.30
2019-04-06T00:30:54.662Z,23.27
2019-04-06T00:33:24.643Z,23.00
2019-04-06T00:35:54.784Z,23.53
2019-04-06T00:38:24.460Z,24.80
2019-04-06T00:40:54.248Z,23.87
2019-04-06T00:43:23.991Z,24.00
2019-04-06T00:45:53.675Z,22.60
2019-04-06T00:48:23.368Z,23.70
2019-04-06T00:50:53.119Z,25.50
2019-04-06T00:53:23.545Z,22.27
2019-04-06T00:55:55.786Z,22.40
2019-04-06T00:58:24.908Z,22.20
2019-04-06T01:00:54.702Z,22.27
2019-04-06T01:03:24.422Z,23.30
2019-04-06T01:05:54.573Z,22.70
2019-04-06T01:08:24.249Z,24.47
2019-04-06T01:10:54.236Z,23.37
2019-04-06T01:13:23.989Z,24.80
2019-04-06T01:15:54.291Z,21.80
2019-04-06T01:18:24.611Z,23.33
2019-04-06T01:20:54.677Z,22.47
2019-04-06T01:23:24.760Z,22.23
2019-04-06T01:25:54.650Z,23.27
2019-04-06T01:28:24.880Z,22.47
2019-04-06T01:30:54.567Z,22.80
2019-04-06T01:33:24.348Z,22.03
2019-04-06T01:35:54.334Z,21.90
2019-04-06T01:38:24.467Z,22.90
2019-04-06T01:40:54.353Z,21.27
2019-04-06T01:43:24.034Z,21.80
2019-04-06T01:45:53.763Z,20.80
2019-04-06T01:48:23.458Z,21.00
2019-04-06T01:50:53.173Z,20.80
2019-04-06T01:53:23.809Z,24.17
2019-04-06T01:55:53.677Z,23.17
2019-04-06T01:58:23.404Z,21.80
2019-04-06T02:01:15.248Z,20.23
2019-04-06T02:03:44.946Z,20.33
2019-04-06T02:06:15.158Z,21.97
2019-04-06T02:08:44.873Z,20.60
2019-04-06T02:11:14.574Z,20.43
2019-04-06T02:13:44.681Z,21.57
2019-04-06T02:16:14.583Z,20.40
2019-04-06T02:18:44.246Z,20.60
2019-04-06T02:21:14.336Z,18.90
2019-04-06T02:23:44.055Z,22.50
2019-04-06T02:26:14.452Z,21.27
2019-04-06T02:28:44.167Z,21.23
2019-04-06T02:31:30.057Z,20.97
2019-04-06T02:34:14.840Z,19.90
2019-04-06T02:37:18.382Z,20.50
2019-04-06T02:40:13.648Z,24.40
2019-04-06T02:42:47.444Z,23.63
2019-04-06T02:45:17.046Z,24.27
2019-04-06T02:47:46.680Z,23.17
2019-04-06T02:50:16.668Z,22.63
2019-04-06T02:52:46.493Z,25.10
2019-04-06T02:55:16.173Z,24.90
2019-04-06T02:57:45.882Z,25.30
2019-04-06T03:00:16.027Z,25.37
2019-04-06T03:02:45.838Z,28.30
2019-04-06T03:05:15.633Z,28.10
2019-04-06T03:07:45.389Z,24.63
2019-04-06T03:10:15.257Z,25.20
2019-04-06T03:12:45.277Z,22.80
2019-04-06T03:15:15.747Z,22.27
2019-04-06T03:17:45.510Z,25.13
2019-04-06T03:20:15.272Z,24.03
2019-04-06T03:22:45.409Z,25.93
2019-04-06T03:25:16.430Z,28.30
2019-04-06T03:27:46.207Z,27.50
2019-04-06T03:30:16.633Z,25.43
2019-04-06T03:32:46.682Z,25.30
2019-04-06T03:35:16.471Z,25.80
2019-04-06T03:37:46.250Z,25.60
2019-04-06T03:40:16.808Z,24.00
2019-04-06T03:42:46.525Z,28.30
2019-04-06T03:45:16.421Z,25.27
2019-04-06T03:47:46.392Z,25.33
2019-04-06T03:50:16.229Z,27.40
2019-04-06T03:52:46.111Z,25.30
2019-04-06T03:55:15.764Z,25.83
2019-04-06T03:57:45.485Z,27.57
2019-04-06T04:00:15.948Z,25.93
2019-04-06T04:02:45.688Z,25.87
2019-04-06T04:05:15.499Z,25.67
2019-04-06T04:07:45.242Z,25.10
2019-04-06T04:10:29.584Z,24.83
2019-04-06T04:12:59.517Z,24.27
2019-04-06T04:15:29.548Z,22.63
2019-04-06T04:17:59.142Z,21.87
2019-04-06T04:20:28.807Z,24.87
2019-04-06T04:22:58.689Z,25.87
2019-04-06T04:25:28.319Z,22.70
2019-04-06T04:27:58.298Z,24.73
2019-04-06T04:30:32.900Z,26.83
2019-04-06T04:32:59.824Z,23.77
2019-04-06T04:35:30.271Z,22.60
2019-04-06T04:37:59.921Z,21.50
2019-04-06T04:40:29.638Z,24.40
2019-04-06T04:42:59.249Z,19.80
2019-04-06T04:45:29.255Z,18.87
2019-04-06T04:48:00.207Z,19.13
2019-04-06T04:50:29.886Z,18.43
2019-04-06T04:52:59.708Z,18.93
2019-04-06T04:55:29.636Z,19.30
2019-04-06T04:57:59.785Z,18.33
2019-04-06T05:00:30.037Z,18.50
2019-04-06T05:02:59.732Z,18.90
2019-04-06T05:05:29.809Z,18.00
2019-04-06T05:07:59.914Z,19.27
2019-04-06T05:10:29.959Z,18.70
2019-04-06T05:12:59.738Z,18.07
2019-04-06T05:15:51.383Z,17.43
2019-04-06T05:18:21.988Z,18.23
2019-04-06T05:20:51.775Z,17.77
2019-04-06T05:23:21.499Z,20.10
2019-04-06T05:25:51.669Z,18.00
2019-04-06T05:28:21.474Z,18.57
2019-04-06T05:30:51.219Z,18.83
2019-04-06T05:33:21.498Z,18.83
2019-04-06T05:35:51.179Z,19.27
2019-04-06T05:38:21.153Z,17.83
2019-04-06T05:40:50.905Z,19.23
2019-04-06T05:43:20.825Z,18.70
2019-04-06T05:45:51.236Z,19.10
2019-04-06T05:48:21.550Z,20.47
2019-04-06T05:50:51.734Z,19.90
2019-04-06T05:53:22.290Z,18.50
2019-04-06T05:55:52.469Z,19.40
2019-04-06T05:58:22.821Z,19.97
2019-04-06T06:00:52.920Z,19.27
2019-04-06T06:03:23.009Z,20.57
2019-04-06T06:05:53.437Z,20.47
2019-04-06T06:08:23.522Z,20.27
2019-04-06T06:10:53.808Z,20.50
2019-04-06T06:13:24.267Z,21.33
2019-04-06T06:15:54.137Z,21.83
2019-04-06T06:18:27.333Z,19.57
2019-04-06T06:20:56.184Z,19.10
2019-04-06T06:23:26.063Z,21.37
2019-04-06T06:25:56.233Z,20.23
2019-04-06T06:28:26.601Z,21.50
2019-04-06T06:30:56.763Z,20.17
2019-04-06T06:33:26.869Z,21.97
2019-04-06T06:35:56.766Z,21.27
2019-04-06T06:38:26.499Z,21.73
2019-04-06T06:40:56.726Z,22.53
2019-04-06T06:43:26.504Z,21.73
2019-04-06T06:45:56.262Z,22.53
2019-04-06T06:48:26.725Z,22.53
2019-04-06T06:50:56.611Z,23.73
2019-04-06T06:53:26.399Z,23.03
2019-04-06T06:55:56.540Z,25.10
2019-04-06T06:58:26.333Z,23.60
2019-04-06T07:00:56.159Z,22.63
2019-04-06T07:03:26.211Z,22.50
2019-04-06T07:05:55.953Z,24.93
2019-04-06T07:08:25.793Z,26.13
2019-04-06T07:10:56.284Z,25.27
2019-04-06T07:13:26.498Z,23.57
2019-04-06T07:15:56.261Z,24.10
2019-04-06T07:18:26.358Z,24.40
2019-04-06T07:20:56.144Z,23.63
2019-04-06T07:23:25.954Z,24.40
2019-04-06T07:25:58.617Z,25.23
2019-04-06T07:28:37.143Z,24.70
2019-04-06T07:30:59.168Z,22.63
2019-04-06T07:33:28.924Z,25.40
2019-04-06T07:35:58.617Z,23.57
2019-04-06T07:38:28.690Z,25.50
2019-04-06T07:40:58.796Z,24.67
2019-04-06T07:43:28.553Z,24.73
2019-04-06T07:45:58.246Z,24.40
2019-04-06T07:48:28.270Z,26.53
2019-04-06T07:50:58.293Z,26.37
2019-04-06T07:53:28.497Z,26.23
2019-04-06T07:55:58.313Z,26.77
2019-04-06T07:58:28.413Z,26.37
2019-04-06T08:00:58.657Z,25.60
2019-04-06T08:03:28.318Z,25.80
2019-04-06T08:05:58.255Z,26.07
2019-04-06T08:08:28.980Z,26.10
2019-04-06T08:10:59.706Z,28.93
2019-04-06T08:13:30.012Z,25.50
2019-04-06T08:16:00.879Z,24.47
2019-04-06T08:18:31.446Z,26.93
2019-04-06T08:21:02.762Z,24.60
2019-04-06T08:23:33.434Z,25.70
2019-04-06T08:26:03.534Z,25.43
2019-04-06T08:28:33.836Z,26.20
2019-04-06T08:31:03.465Z,25.10
2019-04-06T08:33:33.275Z,21.87
2019-04-06T08:36:03.309Z,24.40
2019-04-06T08:38:33.033Z,24.10
2019-04-06T08:41:03.219Z,23.70
2019-04-06T08:43:33.368Z,24.63
2019-04-06T08:46:03.231Z,23.40
2019-04-06T08:48:33.771Z,25.07
2019-04-06T08:51:03.656Z,24.80
2019-04-06T08:53:33.361Z,25.40
2019-04-06T08:56:03.094Z,24.57
2019-04-06T08:58:39.823Z,25.27
2019-04-06T09:01:09.665Z,26.30
2019-04-06T09:03:39.653Z,26.53
2019-04-06T09:06:09.326Z,26.20
2019-04-06T09:08:39.176Z,27.03
2019-04-06T09:11:09.657Z,25.03
2019-04-06T09:13:40.455Z,23.87
2019-04-06T09:16:10.329Z,25.17
2019-04-06T09:18:40.056Z,27.37
2019-04-06T09:21:10.179Z,26.70
2019-04-06T09:23:39.941Z,24.13
2019-04-06T09:26:09.684Z,26.13
2019-04-06T09:49:23.285Z,24.30
2019-04-06T09:52:14.691Z,22.43
2019-04-06T09:55:07.884Z,26.80
2019-04-06T09:58:02.826Z,26.07
2019-04-06T10:00:57.343Z,26.53
2019-04-06T10:03:45.150Z,26.13
2019-04-06T10:06:26.792Z,26.73
2019-04-06T10:09:13.984Z,27.97
2019-04-06T10:12:08.560Z,28.40
2019-04-06T10:17:39.859Z,28.40
2019-04-06T10:20:21.210Z,28.10
2019-04-06T10:23:09.224Z,29.63
2019-04-06T10:26:03.833Z,29.33
2019-04-06T10:29:01.279Z,29.37
2019-04-06T10:31:56.462Z,26.53
2019-04-06T10:34:47.833Z,28.73
2019-04-06T10:37:36.546Z,29.37
2019-04-06T10:40:22.380Z,26.57
2019-04-06T10:43:03.344Z,27.43
2019-04-06T10:45:40.688Z,27.10
2019-04-06T10:48:31.194Z,26.07
2019-04-06T10:51:29.396Z,27.43
2019-04-06T10:54:21.735Z,26.03
2019-04-06T10:56:59.428Z,27.23
2019-04-06T11:00:00.646Z,29.07
2019-04-06T11:02:52.867Z,25.13
2019-04-06T11:05:40.082Z,27.87
2019-04-06T11:08:35.215Z,25.63
2019-04-06T11:11:33.188Z,26.50
2019-04-06T11:14:20.426Z,26.83
2019-04-06T11:17:07.829Z,27.30
2019-04-06T11:19:53.879Z,26.00
2019-04-06T11:22:35.599Z,24.57
2019-04-06T11:25:15.348Z,25.33
2019-04-06T11:28:13.540Z,27.10
2019-04-06T11:31:02.965Z,27.50
2019-04-06T11:33:51.340Z,26.00
2019-04-06T11:36:40.077Z,24.40
2019-04-06T11:39:25.901Z,26.63
2019-04-06T11:42:20.499Z,26.53
2019-04-06T11:45:07.785Z,25.97
2019-04-06T11:48:01.344Z,26.87
2019-04-06T11:50:56.274Z,27.47
2019-04-06T11:53:55.646Z,25.67
2019-04-06T11:56:34.091Z,24.67
2019-04-06T11:59:31.959Z,24.60
2019-04-06T12:02:20.835Z,25.70
2019-04-06T12:05:15.774Z,22.60
2019-04-06T12:08:05.392Z,22.93
2019-04-06T12:10:44.886Z,22.43
2019-04-06T12:13:42.557Z,23.97
2019-04-06T12:16:31.053Z,23.03
2019-04-06T12:19:18.400Z,25.93
2019-04-06T12:22:25.348Z,24.63
2019-04-06T12:25:16.907Z,23.90
2019-04-06T12:28:01.990Z,23.97
2019-04-06T12:30:49.868Z,24.67
2019-04-06T12:33:44.960Z,24.80
2019-04-06T12:36:39.493Z,23.40
2019-04-06T12:39:31.513Z,24.23
2019-04-06T12:42:19.735Z,22.70
2019-04-06T12:45:12.079Z,21.10
2019-04-06T12:48:08.474Z,23.30
2019-04-06T12:50:57.365Z,21.97
2019-04-06T12:53:41.305Z,22.47
2019-04-06T12:56:28.764Z,22.20
2019-04-06T12:59:24.086Z,22.00
2019-04-06T13:02:22.118Z,21.60
2019-04-06T13:05:12.378Z,21.90
2019-04-06T13:08:02.942Z,22.60
2019-04-06T13:10:55.342Z,21.93
2019-04-06T13:13:50.113Z,21.33
2019-04-06T13:16:42.017Z,22.60
2019-04-06T13:19:22.173Z,23.50
2019-04-06T13:21:58.981Z,20.97
2019-04-06T13:24:39.388Z,18.87
2019-04-06T13:27:16.288Z,19.77
2019-04-06T13:30:09.610Z,22.53
2019-04-06T13:33:10.328Z,21.77
2019-04-06T13:35:52.527Z,21.20
2019-04-06T13:38:33.397Z,19.87
2019-04-06T13:41:27.795Z,20.33
2019-04-06T13:44:28.484Z,22.70
2019-04-06T13:47:19.849Z,22.30
2019-04-06T13:50:20.628Z,19.80
2019-04-06T13:53:07.954Z,20.90
2019-04-06T13:55:56.565Z,20.23
2019-04-06T13:58:54.514Z,20.53
2019-04-06T14:01:47.251Z,18.40
2019-04-06T14:04:46.629Z,18.33
2019-04-06T14:07:34.193Z,19.50
2019-04-06T14:10:26.436Z,17.70
2019-04-06T14:13:14.595Z,16.47
2019-04-06T14:16:09.410Z,18.07
2019-04-06T14:18:56.688Z,17.97
2019-04-06T14:21:54.220Z,17.97
2019-04-06T14:24:43.123Z,19.00
2019-04-06T14:27:35.322Z,17.57
2019-04-06T14:30:28.048Z,17.67
2019-04-06T14:33:19.553Z,18.37
2019-04-06T14:36:11.094Z,16.63
2019-04-06T14:38:51.016Z,18.80
2019-04-06T14:41:38.825Z,18.93
2019-04-06T14:44:22.106Z,18.33
2019-04-06T14:47:01.647Z,18.93
2019-04-06T14:49:50.259Z,19.17
2019-04-06T14:52:42.152Z,19.80
2019-04-06T14:55:40.200Z,18.43
2019-04-06T14:58:34.796Z,18.43
2019-04-06T15:01:42.385Z,20.07
2019-04-06T15:04:26.253Z,18.17
2019-04-06T15:07:13.635Z,19.43
2019-04-06T15:10:11.444Z,17.07
2019-04-06T15:13:06.449Z,18.00
2019-04-06T15:18:34.084Z,19.60
2019-04-06T15:46:32.315Z,17.77
2019-04-06T15:49:39.569Z,19.30
2019-04-06T16:23:14.602Z,19.70
2019-04-06T16:37:26.600Z,18.50
2019-04-06T17:02:22.121Z,18.70
2019-04-06T17:08:09.813Z,16.90
2019-04-06T17:11:01.903Z,17.70
2019-04-06T17:20:02.996Z,15.50
2019-04-06T17:22:41.013Z,15.13
2019-04-06T17:25:19.028Z,16.33
2019-04-06T17:27:59.302Z,16.13
2019-04-06T17:30:37.513Z,16.03
2019-04-06T17:33:17.320Z,15.60
2019-04-06T17:36:15.841Z,17.20
2019-04-06T17:39:11.146Z,15.10
2019-04-06T17:41:54.181Z,15.30
2019-04-06T17:44:50.924Z,16.80
2019-04-06T17:47:55.091Z,16.90
2019-04-06T17:50:36.495Z,15.87
2019-04-06T17:53:19.431Z,16.23
2019-04-06T17:56:26.468Z,16.93
2019-04-06T17:59:15.423Z,15.73
2019-04-06T18:02:03.341Z,17.00
2019-04-06T18:05:07.272Z,17.20
2019-04-06T18:07:54.945Z,15.70
2019-04-06T18:10:50.117Z,17.53
2019-04-06T18:13:41.632Z,17.53
2019-04-06T18:16:11.516Z,16.03
2019-04-06T18:18:41.364Z,16.37
2019-04-06T18:21:11.011Z,15.20
2019-04-06T18:23:41.748Z,14.57
2019-04-06T18:26:12.575Z,15.00
2019-04-06T18:29:02.789Z,16.00
2019-04-06T18:32:01.426Z,15.27
2019-04-06T18:34:50.692Z,15.50
2019-04-06T18:37:42.746Z,18.70
2019-04-06T18:40:39.176Z,18.00
2019-04-06T18:43:10.729Z,17.30
2019-04-06T18:45:41.514Z,16.40
2019-04-06T18:48:12.259Z,15.80
2019-04-06T18:50:42.922Z,16.30
2019-04-06T18:53:13.952Z,16.67
2019-04-06T18:55:45.048Z,17.07
2019-04-06T18:58:15.591Z,15.60
2019-04-06T19:00:46.128Z,17.10
2019-04-06T19:03:16.861Z,17.00
2019-04-06T19:05:49.778Z,15.27
2019-04-06T19:08:19.822Z,20.13
2019-04-06T19:10:49.933Z,18.77
2019-04-06T19:13:20.499Z,16.30
2019-04-06T19:15:50.434Z,18.90
2019-04-06T19:18:20.332Z,19.20
2019-04-06T19:20:50.187Z,21.37
2019-04-06T19:23:20.617Z,21.90
2019-04-06T19:25:51.186Z,23.10
2019-04-06T19:28:22.297Z,19.30
2019-04-06T19:30:52.768Z,19.33
2019-04-06T19:33:25.599Z,22.30
2019-04-06T19:35:55.294Z,20.00
2019-04-06T19:38:27.186Z,19.77
2019-04-06T19:40:58.647Z,19.80
2019-04-06T19:43:29.649Z,19.93
2019-04-06T19:46:00.371Z,20.43
2019-04-06T19:48:31.265Z,18.70
2019-04-06T19:51:01.481Z,19.33
2019-04-06T19:53:32.074Z,18.00
2019-04-06T19:56:02.737Z,19.07
2019-04-06T19:58:33.516Z,18.60
2019-04-06T20:01:04.275Z,20.00
2019-04-06T20:03:38.016Z,18.20
2019-04-06T20:06:06.741Z,19.03
2019-04-06T20:08:37.272Z,22.83
2019-04-06T20:11:08.857Z,21.23
2019-04-06T20:13:39.152Z,22.07
2019-04-06T20:16:09.850Z,20.43
2019-04-06T20:18:40.080Z,18.80
2019-04-06T20:21:10.781Z,20.50
2019-04-06T20:23:41.601Z,19.93
2019-04-06T20:26:11.895Z,21.27
2019-04-06T20:28:42.341Z,22.67
2019-04-06T20:31:13.289Z,21.70
2019-04-06T20:33:50.180Z,21.40
2019-04-06T20:36:16.428Z,19.40
2019-04-06T20:38:48.673Z,22.17
2019-04-06T20:41:19.925Z,23.07
2019-04-06T20:43:50.719Z,23.57
2019-04-06T20:46:22.307Z,22.47
2019-04-06T20:48:53.795Z,21.33
2019-04-06T20:51:24.714Z,22.13
2019-04-06T20:53:55.441Z,20.30
2019-04-06T20:56:26.468Z,21.23
2019-04-06T20:58:56.608Z,20.87
2019-04-06T21:01:26.552Z,22.20
2019-04-06T21:04:00.789Z,22.20
2019-04-06T21:06:47.233Z,20.60
2019-04-06T21:09:16.982Z,21.87
2019-04-06T21:11:46.922Z,27.10
2019-04-06T21:14:17.154Z,25.27
2019-04-06T21:16:47.239Z,22.03
2019-04-06T21:19:16.969Z,22.03
2019-04-06T21:21:47.082Z,23.33
2019-04-06T21:24:16.897Z,21.90
2019-04-06T21:26:47.031Z,21.90
2019-04-06T21:29:17.160Z,22.93
2019-04-06T21:31:47.326Z,24.47
2019-04-06T21:34:17.397Z,22.13
2019-04-06T21:36:48.211Z,23.50
2019-04-06T21:39:19.135Z,23.57
2019-04-06T21:41:48.954Z,24.30
2019-04-06T21:44:18.980Z,25.70
2019-04-06T21:46:49.298Z,24.37
2019-04-06T21:49:19.897Z,25.57
2019-04-06T21:51:50.280Z,23.57
2019-04-06T21:54:20.274Z,29.30
2019-04-06T21:56:50.182Z,28.23
2019-04-06T21:59:20.841Z,32.10
2019-04-06T22:01:51.258Z,30.17
2019-04-06T22:04:26.014Z,33.00
2019-04-06T22:06:52.836Z,33.53
2019-04-06T22:09:23.181Z,32.03
2019-04-06T22:11:53.130Z,30.37
2019-04-06T22:14:22.994Z,30.33
2019-04-06T22:16:52.711Z,34.40
2019-04-06T22:19:22.596Z,36.20
2019-04-06T22:21:52.279Z,33.10
2019-04-06T22:24:21.992Z,32.83
2019-04-06T22:26:52.002Z,32.37
2019-04-06T22:29:22.304Z,33.50
2019-04-06T22:31:52.053Z,35.93
2019-04-06T22:34:21.836Z,38.67
2019-04-06T22:36:51.652Z,39.27
2019-04-06T22:39:21.505Z,41.70
2019-04-06T22:41:51.203Z,37.13
2019-04-06T22:44:21.100Z,37.57
2019-04-06T22:46:51.381Z,34.77
2019-04-06T22:49:21.583Z,34.10
2019-04-06T22:51:51.618Z,35.67
2019-04-06T22:54:21.485Z,36.23
2019-04-06T22:56:52.097Z,39.17
2019-04-06T22:59:22.231Z,40.53
2019-04-06T23:01:53.262Z,44.00
2019-04-06T23:04:32.031Z,43.10
2019-04-06T23:07:11.079Z,46.93
2019-04-06T23:09:40.911Z,44.97
2019-04-06T23:12:10.708Z,41.67
2019-04-06T23:14:40.448Z,40.33
2019-04-06T23:17:10.504Z,42.97
2019-04-06T23:19:40.264Z,43.60
2019-04-06T23:22:10.309Z,43.93
2019-04-06T23:24:40.809Z,36.80
2019-04-06T23:27:11.148Z,46.87
2019-04-06T23:29:41.728Z,47.20
2019-04-06T23:32:11.654Z,43.00
2019-04-06T23:34:41.930Z,41.23
2019-04-06T23:37:11.813Z,38.93
2019-04-06T23:39:41.637Z,37.03
2019-04-06T23:42:11.730Z,40.70
2019-04-06T23:44:42.100Z,41.30
2019-04-06T23:47:12.570Z,39.50
2019-04-06T23:49:42.804Z,42.67
2019-04-06T23:52:13.690Z,41.90
2019-04-06T23:54:43.649Z,40.93
2019-04-06T23:57:14.093Z,40.60
2019-04-06T23:59:44.364Z,45.90
